Time;durP1;ratioP1;P1;durP2;ratioP2;P2;SDS_P1;SDS_P2;PMS_P1;PMS_P2;Temp;Humidity;BMP_temperature;BMP_pressure;BME280_temperature;BME280_humidity;BME280_pressure;Samples;Min_cycle;Max_cycle;Signal;HPM_P1;HPM_P2
2023/09/13 00:02:16;;;;;;;10.85;5.28;;;21.80;1.00;;;;;;7367587;19;20101;-68
2023/09/13 00:04:46;;;;;;;10.63;7.00;;;21.60;1.00;;;;;;7366712;19;20022;-67
2023/09/13 00:07:18;;;;;;;12.95;6.70;;;21.30;1.00;;;;;;7369481;19;20018;-67
2023/09/13 00:09:48;;;;;;;10.65;6.68;;;21.10;1.00;;;;;;7368968;19;20484;-67
2023/09/13 00:12:20;;;;;;;10.80;6.43;;;20.90;1.00;;;;;;7369282;19;20010;-67
2023/09/13 00:14:50;;;;;;;11.98;7.15;;;20.70;1.00;;;;;;7366543;19;20672;-67
2023/09/13 00:17:23;;;;;;;11.52;7.40;;;20.50;1.00;;;;;;7368684;19;20011;-67
2023/09/13 00:19:53;;;;;;;8.65;6.60;;;20.50;12.40;;;;;;7368633;19;20027;-67
2023/09/13 00:22:23;;;;;;;10.10;6.97;;;20.20;9.30;;;;;;7368513;19;20024;-67
2023/09/13 00:24:53;;;;;;;8.77;6.88;;;20.20;23.70;;;;;;7365891;19;20010;-67
2023/09/13 00:27:26;;;;;;;9.98;7.10;;;20.20;20.10;;;;;;7368532;19;20070;-66
2023/09/13 00:29:56;;;;;;;9.15;7.05;;;20.30;14.30;;;;;;7368300;19;20082;-67
2023/09/13 00:32:26;;;;;;;11.65;7.43;;;20.10;21.70;;;;;;7368996;19;20290;-67
2023/09/13 00:34:56;;;;;;;8.77;7.10;;;20.00;33.00;;;;;;7365312;19;20018;-68
2023/09/13 00:37:26;;;;;;;10.52;7.15;;;19.90;32.80;;;;;;7368585;19;20023;-68
2023/09/13 00:39:56;;;;;;;9.98;7.63;;;19.80;45.10;;;;;;7368424;19;20078;-70
2023/09/13 00:42:31;;;;;;;10.50;7.53;;;19.90;63.00;;;;;;7369066;19;20034;-68
2023/09/13 00:45:01;;;;;;;9.32;6.85;;;19.90;63.70;;;;;;7365499;19;20055;-68
2023/09/13 00:47:32;;;;;;;8.55;6.28;;;19.90;59.80;;;;;;7367829;19;20014;-68
2023/09/13 00:50:02;;;;;;;9.68;7.03;;;19.90;46.10;;;;;;7368219;19;20534;-68
2023/09/13 00:52:33;;;;;;;8.25;6.47;;;19.90;67.90;;;;;;7368514;19;20011;-68
2023/09/13 00:55:04;;;;;;;8.50;6.30;;;19.80;64.80;;;;;;7367341;19;20017;-67
2023/09/13 00:57:37;;;;;;;11.25;7.10;;;19.70;48.30;;;;;;7391586;19;20022;-68
2023/09/13 01:00:11;;;;;;;7.15;5.70;;;19.80;71.20;;;;;;7393265;19;20042;-68
2023/09/13 01:02:42;;;;;;;7.57;6.45;;;19.60;67.10;;;;;;7395470;19;20086;-68
2023/09/13 01:05:15;;;;;;;7.95;5.50;;;19.70;77.50;;;;;;7392980;19;20014;-69
2023/09/13 01:07:48;;;;;;;9.02;5.40;;;19.60;63.10;;;;;;7395454;19;20466;-68
2023/09/13 01:10:19;;;;;;;8.90;6.00;;;19.50;74.00;;;;;;7394567;19;20549;-68
2023/09/13 01:12:52;;;;;;;6.63;5.60;;;19.50;89.60;;;;;;7394852;19;20006;-66
2023/09/13 01:15:23;;;;;;;9.05;6.20;;;19.40;94.90;;;;;;7394144;19;20002;-67
2023/09/13 01:18:04;;;;;;;9.18;6.63;;;19.50;99.90;;;;;;7396094;19;20007;-67
2023/09/13 01:20:52;;;;;;;7.85;6.50;;;19.40;99.90;;;;;;7393226;19;20031;-67
2023/09/13 01:23:50;;;;;;;9.23;6.40;;;19.40;99.90;;;;;;7394826;19;20368;-67
2023/09/13 01:26:45;;;;;;;7.05;6.32;;;19.20;99.90;;;;;;7393599;19;20026;-68
2023/09/13 01:29:20;;;;;;;7.68;6.00;;;19.20;99.90;;;;;;7394352;19;20721;-68
2023/09/13 01:31:50;;;;;;;9.15;6.55;;;19.20;99.90;;;;;;7394451;19;20043;-68
2023/09/13 01:34:20;;;;;;;9.23;6.22;;;19.20;99.90;;;;;;7393692;19;20014;-66
2023/09/13 01:36:51;;;;;;;9.27;7.25;;;19.20;99.90;;;;;;7394136;19;20470;-67
2023/09/13 01:39:21;;;;;;;6.43;5.63;;;19.30;99.90;;;;;;7393919;19;20159;-66
2023/09/13 01:41:56;;;;;;;9.25;6.43;;;19.30;99.90;;;;;;7394413;19;20097;-68
2023/09/13 01:44:30;;;;;;;13.70;6.50;;;19.20;99.90;;;;;;7393754;19;20384;-68
2023/09/13 01:47:01;;;;;;;7.55;6.38;;;19.30;99.90;;;;;;7393790;19;20006;-67
2023/09/13 01:49:33;;;;;;;7.03;6.32;;;19.40;99.90;;;;;;7394533;19;20010;-68
2023/09/13 01:52:05;;;;;;;7.43;6.35;;;19.40;97.20;;;;;;7393395;19;20089;-68
2023/09/13 01:54:36;;;;;;;6.65;5.75;;;19.50;96.20;;;;;;7393774;19;20021;-68
2023/09/13 01:57:06;;;;;;;8.23;6.13;;;19.50;92.50;;;;;;7393433;19;20010;-68
2023/09/13 01:59:39;;;;;;;7.75;5.22;;;19.50;74.80;;;;;;7388585;19;20082;-67
2023/09/13 02:02:08;;;;;;;10.95;5.90;;;19.40;72.30;;;;;;7392839;19;20014;-67
2023/09/13 02:04:38;;;;;;;7.03;5.35;;;19.40;62.70;;;;;;7393096;19;20030;-67
2023/09/13 02:07:08;;;;;;;5.45;4.38;;;19.40;59.70;;;;;;7393667;19;20018;-67
2023/09/13 02:09:39;;;;;;;5.40;4.57;;;19.50;49.80;;;;;;7393466;19;20014;-69
2023/09/13 02:12:12;;;;;;;8.40;4.10;;;19.40;38.70;;;;;;7394192;19;20011;-68
2023/09/13 02:14:45;;;;;;;6.63;4.85;;;19.30;39.10;;;;;;7392916;19;20074;-68
2023/09/13 02:17:15;;;;;;;6.30;4.60;;;19.40;50.40;;;;;;7393980;19;20082;-68
2023/09/13 02:19:45;;;;;;;5.82;4.70;;;19.40;57.00;;;;;;7393204;19;20507;-68
2023/09/13 02:22:15;;;;;;;4.95;4.00;;;19.30;35.00;;;;;;7393425;19;20069;-68
2023/09/13 02:24:45;;;;;;;4.80;4.40;;;19.20;30.20;;;;;;7392097;19;20047;-68
2023/09/13 02:27:15;;;;;;;7.38;4.38;;;19.20;39.40;;;;;;7392978;19;20014;-68
2023/09/13 02:29:47;;;;;;;4.97;4.47;;;19.20;46.90;;;;;;7393059;19;20102;-68
2023/09/13 02:32:17;;;;;;;6.63;4.38;;;19.20;68.30;;;;;;7393482;19;20395;-68
2023/09/13 02:34:48;;;;;;;5.90;4.47;;;19.00;67.70;;;;;;7392257;19;20015;-67
2023/09/13 02:37:18;;;;;;;4.63;4.20;;;18.90;59.10;;;;;;7393488;19;20010;-68
2023/09/13 02:39:48;;;;;;;5.78;4.68;;;18.80;52.30;;;;;;7393274;19;20365;-68
2023/09/13 02:42:18;;;;;;;8.07;4.78;;;18.90;52.40;;;;;;7393577;19;20010;-67
2023/09/13 02:44:51;;;;;;;5.63;5.03;;;18.90;59.10;;;;;;7391573;19;20010;-67
2023/09/13 02:47:21;;;;;;;6.72;5.40;;;18.80;76.00;;;;;;7392897;19;20402;-67
2023/09/13 02:49:51;;;;;;;6.85;4.68;;;18.80;78.00;;;;;;7392832;19;20014;-67
2023/09/13 02:52:31;;;;;;;5.72;4.93;;;18.70;74.70;;;;;;7392515;19;20104;-67
2023/09/13 02:55:03;;;;;;;9.68;5.43;;;18.70;77.50;;;;;;7391646;19;20011;-67
2023/09/13 02:57:33;;;;;;;6.68;5.57;;;18.70;75.10;;;;;;7393203;19;20002;-67
2023/09/13 03:00:07;;;;;;;6.97;5.05;;;18.80;66.00;;;;;;7392308;19;20022;-67
2023/09/13 03:02:37;;;;;;;;;;;18.80;59.20;;;;;;7393501;19;20014;-67
2023/09/13 03:05:08;;;;;;;6.63;4.93;;;18.80;58.50;;;;;;7391701;19;19911;-67
2023/09/13 03:07:37;;;;;;;6.20;4.57;;;18.90;50.80;;;;;;7393175;19;20086;-67
2023/09/13 03:10:09;;;;;;;5.88;4.43;;;18.80;49.40;;;;;;7392421;19;20039;-67
2023/09/13 03:12:39;;;;;;;5.75;4.65;;;18.90;40.20;;;;;;7392809;19;20007;-67
2023/09/13 03:15:12;;;;;;;9.45;4.47;;;18.80;46.90;;;;;;7391582;19;20006;-67
2023/09/13 03:17:42;;;;;;;5.57;4.60;;;18.90;55.30;;;;;;7392494;19;20015;-68
2023/09/13 03:20:14;;;;;;;5.22;4.47;;;18.80;43.90;;;;;;7390478;19;20018;-67
2023/09/13 03:22:44;;;;;;;7.32;4.82;;;18.90;44.20;;;;;;7392166;19;20474;-67
2023/09/13 03:25:14;;;;;;;5.30;4.30;;;18.90;37.80;;;;;;7391255;19;20018;-67
2023/09/13 03:27:44;;;;;;;7.93;4.70;;;18.90;37.60;;;;;;7391410;19;20530;-67
2023/09/13 03:30:16;;;;;;;5.97;4.40;;;18.90;30.90;;;;;;7391823;19;20419;-67
2023/09/13 03:32:46;;;;;;;7.68;4.95;;;18.90;36.30;;;;;;7391393;19;20098;-67
2023/09/13 03:35:16;;;;;;;9.88;5.07;;;18.90;32.70;;;;;;7391049;19;20078;-67
2023/09/13 03:37:46;;;;;;;6.05;4.60;;;18.90;41.80;;;;;;7391280;19;20086;-67
2023/09/13 03:40:16;;;;;;;6.65;4.72;;;18.80;36.20;;;;;;7391036;19;20421;-67
2023/09/13 03:42:46;;;;;;;5.93;4.55;;;18.80;34.50;;;;;;7391343;19;20022;-67
2023/09/13 03:45:19;;;;;;;7.68;4.35;;;18.80;32.70;;;;;;7390401;19;20006;-67
2023/09/13 03:47:49;;;;;;;4.68;4.07;;;18.80;27.80;;;;;;7390113;19;20082;-67
2023/09/13 03:50:19;;;;;;;5.68;4.50;;;18.80;24.70;;;;;;7390697;19;20045;-67
2023/09/13 03:52:49;;;;;;;4.93;4.30;;;18.80;27.30;;;;;;7390430;19;20822;-67
2023/09/13 03:55:19;;;;;;;5.05;4.55;;;18.90;28.90;;;;;;7390135;19;20101;-68
2023/09/13 03:57:49;;;;;;;6.43;4.60;;;18.80;24.60;;;;;;7390883;19;20749;-67
2023/09/13 04:00:22;;;;;;;5.93;4.63;;;18.80;23.90;;;;;;7390204;19;20010;-67
2023/09/13 04:02:52;;;;;;;6.13;4.70;;;18.80;27.70;;;;;;7390751;19;20086;-67
2023/09/13 04:05:22;;;;;;;6.10;4.40;;;18.80;35.00;;;;;;7388450;19;20015;-67
2023/09/13 04:07:52;;;;;;;6.80;4.43;;;18.80;28.90;;;;;;7390569;19;20035;-68
2023/09/13 04:10:22;;;;;;;6.30;4.57;;;18.90;26.90;;;;;;7387818;19;20526;-68
2023/09/13 04:12:52;;;;;;;5.82;4.55;;;18.80;20.30;;;;;;7390382;19;20031;-66
2023/09/13 04:15:25;;;;;;;5.35;4.03;;;18.90;23.50;;;;;;7388334;19;20027;-66
2023/09/13 04:17:55;;;;;;;5.97;4.13;;;18.90;21.50;;;;;;7390081;19;20097;-67
2023/09/13 04:20:25;;;;;;;7.03;4.28;;;18.90;20.30;;;;;;7388035;19;20014;-67
2023/09/13 04:22:55;;;;;;;6.00;4.82;;;18.80;18.00;;;;;;7390206;19;20052;-67
2023/09/13 04:25:25;;;;;;;6.70;4.20;;;18.80;20.90;;;;;;7388534;19;20470;-66
2023/09/13 04:27:55;;;;;;;5.25;4.15;;;18.80;26.00;;;;;;7389640;19;20025;-67
2023/09/13 04:30:28;;;;;;;5.43;4.68;;;18.80;24.40;;;;;;7388932;19;20017;-67
2023/09/13 04:32:58;;;;;;;5.03;4.53;;;18.90;34.00;;;;;;7394630;19;20082;-67
2023/09/13 04:35:28;;;;;;;4.82;4.03;;;18.80;32.60;;;;;;7393770;19;20021;-67
2023/09/13 04:37:58;;;;;;;5.38;4.30;;;18.70;30.30;;;;;;7396128;19;20082;-67
2023/09/13 04:40:28;;;;;;;5.32;4.80;;;18.80;27.70;;;;;;7393468;19;20014;-67
2023/09/13 04:43:19;;;;;;;5.10;4.35;;;18.80;27.50;;;;;;7395980;19;20010;-68
2023/09/13 04:45:52;;;;;;;7.07;4.40;;;18.70;23.50;;;;;;7395733;19;20031;-66
2023/09/13 04:48:23;;;;;;;6.35;4.28;;;18.70;29.30;;;;;;7395428;19;20027;-67
2023/09/13 04:50:52;;;;;;;5.65;4.47;;;18.70;26.50;;;;;;7396356;19;20019;-67
2023/09/13 04:53:22;;;;;;;6.57;4.88;;;18.80;32.00;;;;;;7393625;19;20372;-67
2023/09/13 04:55:52;;;;;;;4.93;4.15;;;18.80;28.50;;;;;;7395698;19;20487;-67
2023/09/13 04:58:22;;;;;;;6.07;4.80;;;18.80;21.90;;;;;;7394955;19;20490;-67
2023/09/13 05:00:56;;;;;;;6.13;4.70;;;18.80;24.30;;;;;;7396594;19;20015;-67
2023/09/13 05:03:26;;;;;;;8.00;5.50;;;18.80;28.10;;;;;;7394838;19;20470;-68
2023/09/13 05:05:57;;;;;;;8.45;4.85;;;18.80;27.00;;;;;;7395492;19;20039;-68
2023/09/13 05:08:27;;;;;;;6.50;5.30;;;18.80;24.70;;;;;;7393826;19;20410;-68
2023/09/13 05:10:57;;;;;;;5.95;4.63;;;18.80;28.90;;;;;;7396319;19;20073;-67
2023/09/13 05:13:27;;;;;;;6.07;4.93;;;18.80;23.00;;;;;;7394677;19;20485;-67
2023/09/13 05:16:00;;;;;;;8.10;5.72;;;18.70;27.40;;;;;;7395163;19;20010;-67
2023/09/13 05:18:30;;;;;;;5.97;4.65;;;18.80;25.20;;;;;;7395823;19;20014;-67
2023/09/13 05:21:00;;;;;;;6.15;4.93;;;18.80;24.30;;;;;;7396141;19;20025;-67
2023/09/13 05:23:30;;;;;;;7.55;5.97;;;18.90;23.80;;;;;;7395481;19;20403;-67
2023/09/13 05:25:59;;;;;;;7.10;5.13;;;19.00;15.60;;;;;;7394467;19;20031;-67
2023/09/13 05:28:33;;;;;;;6.88;5.38;;;19.30;6.80;;;;;;7394822;19;20354;-67
2023/09/13 05:31:05;;;;;;;6.22;4.93;;;19.20;9.50;;;;;;7395744;19;20411;-67
2023/09/13 05:33:36;;;;;;;8.27;4.90;;;19.10;13.20;;;;;;7395420;19;20006;-67
2023/09/13 05:36:10;;;;;;;6.10;4.28;;;19.00;11.30;;;;;;7394088;19;20027;-67
2023/09/13 05:38:40;;;;;;;5.25;4.65;;;19.10;16.00;;;;;;7395350;19;20014;-68
2023/09/13 05:41:10;;;;;;;8.85;5.50;;;19.20;12.60;;;;;;7393819;19;20018;-66
2023/09/13 05:43:42;;;;;;;5.97;4.57;;;19.30;12.00;;;;;;7393812;19;20134;-67
2023/09/13 05:46:15;;;;;;;9.68;5.15;;;19.30;9.00;;;;;;7393887;19;20014;-67
2023/09/13 05:48:45;;;;;;;6.60;4.88;;;19.30;5.90;;;;;;7394127;19;20031;-66
2023/09/13 05:51:16;;;;;;;8.45;4.70;;;19.20;6.10;;;;;;7394553;19;20081;-67
2023/09/13 05:53:46;;;;;;;5.35;4.05;;;19.20;13.00;;;;;;7392894;19;20100;-66
2023/09/13 05:56:16;;;;;;;6.88;4.32;;;19.10;14.00;;;;;;7393533;19;20127;-67
2023/09/13 05:58:46;;;;;;;6.10;4.20;;;19.10;11.30;;;;;;7394099;19;20038;-66
2023/09/13 06:01:18;;;;;;;6.53;4.07;;;19.00;16.00;;;;;;7394200;19;20082;-67
2023/09/13 06:03:49;;;;;;;6.20;4.13;;;19.10;16.20;;;;;;7393067;19;20463;-67
2023/09/13 06:06:19;;;;;;;4.40;3.92;;;19.10;14.50;;;;;;7392720;19;20343;-68
2023/09/13 06:08:49;;;;;;;4.63;3.80;;;19.10;18.20;;;;;;7394232;19;20377;-66
2023/09/13 06:11:19;;;;;;;4.05;3.65;;;19.10;17.70;;;;;;7393714;19;20470;-67
2023/09/13 06:13:48;;;;;;;6.32;4.10;;;19.00;10.00;;;;;;7391243;19;20020;-67
2023/09/13 06:16:22;;;;;;;5.68;4.03;;;19.00;12.60;;;;;;7392929;19;20014;-66
2023/09/13 06:18:52;;;;;;;4.78;3.83;;;19.10;15.20;;;;;;7393303;19;20018;-68
2023/09/13 06:21:22;;;;;;;5.53;4.10;;;19.20;12.20;;;;;;7393230;19;20070;-67
2023/09/13 06:23:52;;;;;;;8.77;4.20;;;19.20;13.90;;;;;;7393393;19;20091;-67
2023/09/13 06:26:22;;;;;;;6.22;4.00;;;19.20;10.50;;;;;;7392030;19;20014;-66
2023/09/13 06:28:53;;;;;;;6.70;4.13;;;19.20;13.30;;;;;;7391128;19;20495;-66
2023/09/13 06:31:25;;;;;;;3.80;3.35;;;19.20;11.80;;;;;;7392606;19;20038;-67
2023/09/13 06:34:03;;;;;;;4.03;3.58;;;19.20;9.40;;;;;;7390925;19;20392;-66
2023/09/13 06:36:36;;;;;;;5.85;3.97;;;19.20;8.70;;;;;;7391968;19;20011;-67
2023/09/13 06:39:08;;;;;;;4.18;3.25;;;19.30;7.50;;;;;;7392665;19;20082;-66
2023/09/13 06:41:37;;;;;;;4.85;3.40;;;19.30;7.20;;;;;;7392716;19;20019;-67
2023/09/13 06:44:09;;;;;;;5.15;3.63;;;19.30;2.70;;;;;;7392850;19;20382;-67
2023/09/13 06:46:44;;;;;;;5.47;3.47;;;19.30;5.50;;;;;;7392109;19;20014;-67
2023/09/13 06:49:22;;;;;;;5.50;3.70;;;19.30;7.20;;;;;;7392364;19;20006;-67
2023/09/13 06:51:53;;;;;;;5.25;4.00;;;19.30;8.60;;;;;;7391844;19;20486;-67
2023/09/13 06:54:24;;;;;;;4.65;3.80;;;19.40;8.20;;;;;;7385149;19;20014;-66
2023/09/13 06:56:58;;;;;;;5.40;3.83;;;19.50;4.30;;;;;;7390284;19;20011;-66
2023/09/13 06:59:31;;;;;;;6.85;4.05;;;19.50;2.00;;;;;;7391326;19;20279;-66
2023/09/13 07:02:22;;;;;;;16.95;10.65;;;19.60;4.10;;;;;;7384310;19;20022;-67
2023/09/13 07:05:05;;;;;;;4.15;3.60;;;19.60;1.00;;;;;;7389947;19;20025;-66
2023/09/13 07:07:38;;;;;;;4.72;3.63;;;19.60;1.30;;;;;;7392650;19;20023;-67
2023/09/13 07:10:09;;;;;;;6.47;4.10;;;19.60;1.00;;;;;;7391833;19;20517;-66
2023/09/13 07:12:39;;;;;;;4.38;3.88;;;19.70;2.70;;;;;;7391982;19;20034;-67
2023/09/13 07:15:10;;;;;;;5.32;3.78;;;19.50;1.00;;;;;;7391231;19;20085;-67
2023/09/13 07:17:42;;;;;;;5.03;4.30;;;19.60;3.30;;;;;;7392756;19;20024;-67
2023/09/13 07:20:14;;;;;;;4.55;3.78;;;19.50;2.40;;;;;;7392156;19;20014;-67
2023/09/13 07:22:44;;;;;;;5.25;3.70;;;19.50;3.50;;;;;;7392156;19;20077;-67
2023/09/13 07:25:14;;;;;;;4.55;3.80;;;19.30;2.80;;;;;;7391336;19;20011;-67
2023/09/13 07:27:44;;;;;;;5.60;3.78;;;19.20;8.20;;;;;;7392111;19;20011;-67
2023/09/13 07:30:14;;;;;;;8.30;3.72;;;19.10;10.80;;;;;;7392276;19;20085;-66
2023/09/13 07:32:51;;;;;;;4.35;3.85;;;19.20;15.70;;;;;;7391095;19;20010;-68
2023/09/13 07:35:22;;;;;;;4.47;3.75;;;19.40;16.40;;;;;;7390486;19;20060;-67
2023/09/13 07:37:52;;;;;;;6.38;3.72;;;19.40;7.10;;;;;;7392050;19;20010;-67
2023/09/13 07:40:24;;;;;;;4.25;3.72;;;19.40;10.80;;;;;;7390626;19;20018;-67
2023/09/13 07:42:54;;;;;;;6.47;3.83;;;19.20;10.10;;;;;;7391683;19;20006;-66
2023/09/13 07:45:31;;;;;;;5.00;4.10;;;19.30;13.80;;;;;;7390112;19;20014;-67
2023/09/13 07:48:04;;;;;;;;;;;19.30;9.10;;;;;;7391793;19;20029;-67
2023/09/13 07:50:36;;;;;;;6.97;3.80;;;19.50;8.80;;;;;;7390650;19;19934;-67
2023/09/13 07:53:07;;;;;;;8.10;4.38;;;19.40;1.00;;;;;;7391091;19;20015;-66
2023/09/13 07:55:37;;;;;;;5.07;3.70;;;19.60;6.80;;;;;;7389872;19;20023;-66
2023/09/13 07:58:08;;;;;;;4.43;3.80;;;19.60;2.90;;;;;;7390790;19;20355;-66
2023/09/13 08:00:38;;;;;;;6.53;4.00;;;19.50;4.50;;;;;;7390092;19;20034;-66
2023/09/13 08:03:11;;;;;;;6.55;4.40;;;19.40;6.20;;;;;;7390900;19;20017;-66
2023/09/13 08:05:42;;;;;;;5.57;3.78;;;19.70;6.60;;;;;;7389537;19;20687;-67
2023/09/13 08:08:12;;;;;;;4.50;3.88;;;19.60;3.10;;;;;;7391116;19;20632;-66
2023/09/13 08:10:42;;;;;;;9.27;4.25;;;19.80;5.90;;;;;;7390600;19;20053;-67
2023/09/13 08:13:12;;;;;;;4.80;3.60;;;19.80;5.60;;;;;;7390903;19;20027;-67
2023/09/13 08:15:43;;;;;;;6.15;4.32;;;19.80;7.40;;;;;;7388802;19;20090;-67
2023/09/13 08:18:21;;;;;;;6.43;4.00;;;19.90;1.00;;;;;;7388403;19;20015;-67
2023/09/13 08:20:51;;;;;;;5.90;3.90;;;19.80;1.00;;;;;;7390055;19;20042;-67
2023/09/13 08:23:21;;;;;;;5.55;3.65;;;20.00;1.00;;;;;;7389232;19;20014;-67
2023/09/13 08:25:51;;;;;;;4.45;3.65;;;19.80;1.00;;;;;;7389125;19;20018;-67
2023/09/13 08:28:21;;;;;;;4.35;3.53;;;19.70;1.00;;;;;;7389395;19;20082;-66
2023/09/13 08:30:51;;;;;;;3.90;3.40;;;19.60;1.00;;;;;;7389841;19;20428;-66
2023/09/13 08:33:23;;;;;;;4.43;3.17;;;19.50;5.70;;;;;;7389028;19;20078;-66
2023/09/13 08:35:53;;;;;;;8.20;3.90;;;19.70;2.70;;;;;;7388211;19;20014;-67
2023/09/13 08:38:24;;;;;;;8.57;4.15;;;20.10;1.00;;;;;;7388993;19;20042;-66
2023/09/13 08:40:54;;;;;;;6.70;3.47;;;20.10;1.00;;;;;;7389513;19;20014;-66
2023/09/13 08:43:24;;;;;;;4.53;3.22;;;20.30;1.00;;;;;;7389548;19;20344;-67
2023/09/13 08:45:57;;;;;;;5.32;3.38;;;20.30;1.00;;;;;;7388782;19;20027;-66
2023/09/13 08:48:30;;;;;;;4.63;3.33;;;20.40;1.00;;;;;;7388548;19;20015;-66
2023/09/13 08:51:02;;;;;;;3.97;3.58;;;20.30;1.00;;;;;;7389050;19;20015;-66
2023/09/13 08:53:34;;;;;;;4.32;3.40;;;20.20;1.00;;;;;;7387892;19;20007;-66
2023/09/13 08:56:05;;;;;;;5.28;3.67;;;20.20;1.00;;;;;;7388720;19;20106;-66
2023/09/13 08:58:35;;;;;;;4.70;4.05;;;20.10;1.00;;;;;;7389049;19;20034;-67
2023/09/13 09:01:09;;;;;;;5.05;3.50;;;19.90;1.00;;;;;;7388341;19;20011;-67
2023/09/13 09:03:43;;;;;;;6.78;4.05;;;20.10;1.00;;;;;;7387711;19;20015;-67
2023/09/13 09:06:17;;;;;;;3.65;3.20;;;20.50;1.00;;;;;;7386564;19;20015;-66
2023/09/13 09:08:50;;;;;;;4.35;3.45;;;20.70;1.00;;;;;;7385837;19;20410;-66
2023/09/13 09:11:24;;;;;;;7.45;4.00;;;20.70;1.00;;;;;;7386471;19;20015;-67
2023/09/13 09:13:57;;;;;;;4.18;3.50;;;20.60;1.00;;;;;;7387664;19;20082;-66
2023/09/13 09:16:28;;;;;;;4.45;3.55;;;20.80;1.00;;;;;;7387018;19;20027;-66
2023/09/13 09:19:04;;;;;;;4.50;3.38;;;20.70;1.00;;;;;;7395045;19;20025;-68
2023/09/13 09:21:35;;;;;;;5.68;4.10;;;20.30;1.00;;;;;;7394395;19;20087;-65
2023/09/13 09:24:05;;;;;;;5.03;3.78;;;20.60;1.00;;;;;;7394967;19;20022;-66
2023/09/13 09:26:44;;;;;;;7.32;3.38;;;20.70;1.00;;;;;;7392467;19;20522;-66
2023/09/13 09:29:16;;;;;;;5.35;3.50;;;20.50;1.00;;;;;;7394755;19;20031;-67
2023/09/13 09:31:46;;;;;;;5.82;4.03;;;20.70;1.00;;;;;;7393253;19;20026;-67
2023/09/13 09:34:19;;;;;;;4.93;3.45;;;20.70;1.00;;;;;;7393705;19;20116;-66
2023/09/13 09:36:49;;;;;;;6.97;3.50;;;20.80;1.00;;;;;;7392758;19;20027;-67
2023/09/13 09:39:20;;;;;;;4.90;3.90;;;20.80;1.00;;;;;;7393914;19;20026;-68
2023/09/13 09:41:50;;;;;;;4.90;3.85;;;20.90;1.00;;;;;;7391870;19;20035;-65
2023/09/13 09:44:21;;;;;;;5.80;4.25;;;20.90;1.00;;;;;;7392704;19;20524;-66
2023/09/13 09:46:51;;;;;;;5.22;4.03;;;20.40;1.00;;;;;;7390996;19;20014;-67
2023/09/13 09:49:25;;;;;;;5.10;3.83;;;20.50;1.00;;;;;;7392729;19;20038;-66
2023/09/13 09:51:56;;;;;;;5.82;4.10;;;20.90;1.00;;;;;;7392846;19;20022;-66
2023/09/13 09:54:26;;;;;;;5.78;3.90;;;20.70;1.00;;;;;;7393447;19;20495;-66
2023/09/13 09:56:56;;;;;;;6.05;4.18;;;20.50;1.00;;;;;;7392960;19;20027;-67
2023/09/13 09:59:30;;;;;;;5.63;3.97;;;20.70;1.00;;;;;;7390361;19;20368;-65
2023/09/13 10:02:00;;;;;;;4.32;3.75;;;20.60;1.00;;;;;;7392525;19;20063;-66
2023/09/13 10:04:47;;;;;;;5.22;4.10;;;20.80;1.00;;;;;;7392114;19;20014;-67
2023/09/13 10:07:17;;;;;;;5.22;3.97;;;20.80;1.00;;;;;;7393078;19;20088;-66
2023/09/13 10:09:49;;;;;;;7.03;4.20;;;20.90;1.00;;;;;;7391921;19;20014;-66
2023/09/13 10:12:19;;;;;;;5.38;3.88;;;21.20;1.00;;;;;;7393121;19;20081;-65
2023/09/13 10:14:49;;;;;;;5.45;3.88;;;21.10;1.00;;;;;;7390471;19;20019;-67
2023/09/13 10:17:20;;;;;;;8.02;4.30;;;21.10;1.00;;;;;;7380390;19;20062;-67
2023/09/13 10:19:55;;;;;;;4.68;3.75;;;21.20;1.00;;;;;;7372421;19;20431;-66
2023/09/13 10:22:30;;;;;;;6.22;3.97;;;20.80;1.00;;;;;;7372664;19;20094;-67
2023/09/13 10:25:03;;;;;;;6.13;4.10;;;21.30;1.00;;;;;;7371300;19;20014;-66
2023/09/13 10:27:36;;;;;;;4.40;3.72;;;21.40;1.00;;;;;;7372462;19;20090;-66
2023/09/13 10:30:08;;;;;;;4.90;3.85;;;21.60;1.00;;;;;;7370638;19;20018;-65
2023/09/13 10:32:47;;;;;;;6.05;3.92;;;21.60;1.00;;;;;;7373410;19;20585;-66
2023/09/13 10:35:22;;;;;;;4.85;3.30;;;21.30;1.00;;;;;;7369424;19;20123;-65
2023/09/13 10:37:58;;;;;;;5.15;3.95;;;21.10;1.00;;;;;;7371803;19;20078;-66
2023/09/13 10:40:36;;;;;;;4.60;3.65;;;21.10;1.00;;;;;;7370981;19;20070;-68
2023/09/13 10:43:07;;;;;;;4.03;3.63;;;21.20;1.00;;;;;;7372284;19;20014;-64
2023/09/13 10:45:41;;;;;;;5.32;3.70;;;21.10;1.00;;;;;;7366520;19;20010;-66
2023/09/13 10:48:11;;;;;;;5.00;3.50;;;21.10;1.00;;;;;;7367224;19;20386;-66
2023/09/13 10:50:44;;;;;;;4.53;3.90;;;21.00;1.00;;;;;;7363978;19;20018;-67
2023/09/13 11:01:18;;;;;;;5.22;4.05;;;21.00;1.00;;;;;;7401586;19;20044;-66
2023/09/13 11:03:47;;;;;;;4.88;3.70;;;21.40;1.00;;;;;;7401502;19;20014;-66
2023/09/13 11:06:16;;;;;;;6.95;3.88;;;21.50;1.00;;;;;;7397590;19;20014;-66
2023/09/13 11:08:45;;;;;;;5.15;3.78;;;21.50;1.00;;;;;;7396653;19;20332;-67
2023/09/13 11:11:17;;;;;;;6.47;3.65;;;22.00;1.00;;;;;;7395993;19;20041;-67
2023/09/13 11:13:49;;;;;;;3.67;3.38;;;21.70;1.00;;;;;;7393083;19;20667;-66
2023/09/13 11:22:00;;;;;;;6.93;3.60;;;22.40;1.00;;;;;;7401481;19;20051;-67
2023/09/13 11:24:43;;;;;;;4.40;3.60;;;22.80;1.00;;;;;;7398709;19;20029;-67
2023/09/13 11:27:30;;;;;;;5.15;3.25;;;22.70;1.00;;;;;;7399671;19;20006;-68
2023/09/13 11:30:03;;;;;;;4.18;2.88;;;22.40;1.00;;;;;;7254219;19;2888071;-66
2023/09/13 11:32:34;;;;;;;3.30;3.00;;;22.30;1.00;;;;;;7403773;19;20014;-66
2023/09/13 11:35:05;;;;;;;5.22;3.15;;;22.50;1.00;;;;;;7400560;19;20014;-66
2023/09/13 11:37:38;;;;;;;6.05;3.17;;;23.00;1.00;;;;;;7403573;19;20037;-66
2023/09/13 11:40:13;;;;;;;3.47;3.17;;;23.00;1.00;;;;;;7403378;19;20014;-65
2023/09/13 11:42:44;;;;;;;3.25;2.95;;;23.20;1.00;;;;;;7403409;19;20035;-66
2023/09/13 11:45:33;;;;;;;4.25;2.85;;;23.40;1.00;;;;;;7399599;19;20458;-67
2023/09/13 11:48:05;;;;;;;4.35;3.05;;;22.80;1.00;;;;;;7403380;19;20006;-67
2023/09/13 11:50:44;;;;;;;4.38;3.00;;;23.10;1.00;;;;;;7403171;19;20447;-66
2023/09/13 11:53:27;;;;;;;5.30;2.88;;;23.50;1.00;;;;;;7401884;19;20021;-66
2023/09/13 11:55:58;;;;;;;5.15;3.10;;;23.50;1.00;;;;;;7399742;19;20078;-66
2023/09/13 11:58:36;;;;;;;4.15;2.80;;;23.30;1.00;;;;;;7402314;19;20014;-67
2023/09/13 12:01:26;;;;;;;3.28;2.83;;;23.00;1.00;;;;;;7403335;19;20729;-68
2023/09/13 12:04:03;;;;;;;3.00;2.53;;;22.60;1.00;;;;;;7400102;19;20014;-66
2023/09/13 12:06:43;;;;;;;5.85;2.92;;;22.40;1.00;;;;;;7400646;19;20263;-66
2023/09/13 12:09:21;;;;;;;4.68;3.20;;;23.20;1.00;;;;;;7402471;19;20023;-65
2023/09/13 12:11:57;;;;;;;3.42;2.75;;;23.20;1.00;;;;;;7401565;19;20011;-66
2023/09/13 12:14:35;;;;;;;4.97;3.25;;;22.90;1.00;;;;;;7400057;19;20017;-68
2023/09/13 12:17:08;;;;;;;4.65;3.00;;;23.10;1.00;;;;;;7401118;19;20037;-66
2023/09/13 12:19:39;;;;;;;3.08;2.78;;;23.00;1.00;;;;;;7401336;19;20010;-66
2023/09/13 12:22:16;;;;;;;3.65;2.58;;;23.50;1.00;;;;;;7401648;19;20646;-66
2023/09/13 12:24:58;;;;;;;4.80;2.67;;;23.20;1.00;;;;;;7397311;19;20014;-67
2023/09/13 12:27:28;;;;;;;3.83;2.45;;;23.10;1.00;;;;;;7400426;19;20014;-65
2023/09/13 12:29:58;;;;;;;4.68;2.70;;;23.50;1.00;;;;;;7399944;19;20007;-66
2023/09/13 12:32:28;;;;;;;5.75;2.80;;;22.80;1.00;;;;;;7383727;19;20017;-65
2023/09/13 12:34:58;;;;;;;3.72;2.95;;;22.80;1.00;;;;;;7371022;19;20033;-66
2023/09/13 12:37:31;;;;;;;4.53;3.05;;;23.10;1.00;;;;;;7373083;19;20101;-66
2023/09/13 12:40:13;;;;;;;4.70;3.00;;;23.10;1.00;;;;;;7371824;19;20021;-67
2023/09/13 12:42:44;;;;;;;3.53;2.90;;;22.70;1.00;;;;;;7371047;19;20042;-66
2023/09/13 12:45:14;;;;;;;5.53;2.95;;;23.00;1.00;;;;;;7369317;19;20014;-65
2023/09/13 12:47:44;;;;;;;4.05;2.85;;;23.30;1.00;;;;;;7372340;19;20018;-64
2023/09/13 12:50:14;;;;;;;7.32;3.20;;;23.70;1.00;;;;;;7373271;19;20014;-65
2023/09/13 12:53:03;;;;;;;3.67;2.95;;;23.20;1.00;;;;;;7373894;19;20011;-65
2023/09/13 12:55:35;;;;;;;3.42;2.53;;;23.50;1.00;;;;;;7369316;19;20010;-65
2023/09/13 12:58:06;;;;;;;4.30;2.50;;;23.20;1.00;;;;;;7372667;19;20122;-66
2023/09/13 13:00:50;;;;;;;3.03;2.70;;;23.00;1.00;;;;;;7371993;19;20034;-66
2023/09/13 13:03:20;;;;;;;3.80;2.63;;;23.30;1.00;;;;;;7373428;19;20021;-65
2023/09/13 13:05:52;;;;;;;4.60;2.42;;;23.40;1.00;;;;;;7367524;19;20019;-65
2023/09/13 13:08:22;;;;;;;2.60;2.40;;;22.90;1.00;;;;;;7372653;19;20047;-65
2023/09/13 13:11:04;;;;;;;2.25;2.00;;;22.80;1.00;;;;;;7371756;19;21012;-65
2023/09/13 13:13:34;;;;;;;3.67;2.80;;;23.10;1.00;;;;;;7372674;19;20086;-66
2023/09/13 13:16:16;;;;;;;2.47;2.28;;;23.30;1.00;;;;;;7369597;19;20010;-66
2023/09/13 13:18:51;;;;;;;3.78;2.33;;;23.20;1.00;;;;;;7371323;19;20007;-66
2023/09/13 13:21:26;;;;;;;4.65;2.45;;;23.30;1.00;;;;;;7372598;19;20017;-65
2023/09/13 13:24:09;;;;;;;3.55;2.22;;;23.50;1.00;;;;;;7369743;19;20488;-66
2023/09/13 13:26:41;;;;;;;4.53;2.80;;;23.40;1.00;;;;;;7370504;19;20086;-66
2023/09/13 13:29:12;;;;;;;3.20;2.90;;;23.20;1.00;;;;;;7372071;19;20738;-66
2023/09/13 13:31:42;;;;;;;4.07;2.38;;;23.50;1.00;;;;;;7369577;19;20014;-66
2023/09/13 13:34:12;;;;;;;3.40;2.53;;;23.30;1.00;;;;;;7364472;19;20033;-66